sensor_id;sensor_type;location;lat;lon;timestamp;P1;durP1;ratioP1;P2;durP2;ratioP2
3066;SDS011;1544;48.834;9.194;2023-04-08T00:00:30;11.47;;;9.07;;
3066;SDS011;1544;48.834;9.194;2023-04-08T00:03:05;14.70;;;9.80;;
3066;SDS011;1544;48.834;9.194;2023-04-08T00:05:40;11.57;;;8.60;;
3066;SDS011;1544;48.834;9.194;2023-04-08T00:08:15;11.60;;;9.43;;
3066;SDS011;1544;48.834;9.194;2023-04-08T00:10:50;11.20;;;8.00;;
3066;SDS011;1544;48.834;9.194;2023-04-08T00:13:25;10.00;;;8.93;;
3066;SDS011;1544;48.834;9.194;2023-04-08T00:15:59;12.43;;;9.57;;
3066;SDS011;1544;48.834;9.194;2023-04-08T00:18:34;12.80;;;8.60;;
3066;SDS011;1544;48.834;9.194;2023-04-08T00:21:11;10.70;;;9.07;;
3066;SDS011;1544;48.834;9.194;2023-04-08T00:23:47;10.40;;;9.10;;
3066;SDS011;1544;48.834;9.194;2023-04-08T00:26:22;10.33;;;9.10;;
3066;SDS011;1544;48.834;9.194;2023-04-08T00:28:57;12.43;;;9.20;;
3066;SDS011;1544;48.834;9.194;2023-04-08T00:31:32;9.47;;;8.40;;
3066;SDS011;1544;48.834;9.194;2023-04-08T00:34:07;11.07;;;9.33;;
3066;SDS011;1544;48.834;9.194;2023-04-08T00:36:42;10.00;;;8.73;;
3066;SDS011;1544;48.834;9.194;2023-04-08T00:39:19;11.43;;;9.67;;
3066;SDS011;1544;48.834;9.194;2023-04-08T00:41:54;11.57;;;9.80;;
3066;SDS011;1544;48.834;9.194;2023-04-08T00:44:30;11.53;;;9.10;;
3066;SDS011;1544;48.834;9.194;2023-04-08T00:47:05;12.13;;;9.80;;
3066;SDS011;1544;48.834;9.194;2023-04-08T00:49:40;10.20;;;8.90;;
3066;SDS011;1544;48.834;9.194;2023-04-08T00:52:17;11.13;;;9.70;;
3066;SDS011;1544;48.834;9.194;2023-04-08T00:54:52;14.83;;;9.80;;
3066;SDS011;1544;48.834;9.194;2023-04-08T00:57:26;11.13;;;9.23;;
3066;SDS011;1544;48.834;9.194;2023-04-08T01:00:02;13.63;;;10.47;;
3066;SDS011;1544;48.834;9.194;2023-04-08T01:02:44;12.43;;;11.10;;
3066;SDS011;1544;48.834;9.194;2023-04-08T01:05:50;11.17;;;9.37;;
3066;SDS011;1544;48.834;9.194;2023-04-08T01:08:35;10.80;;;9.27;;
3066;SDS011;1544;48.834;9.194;2023-04-08T01:11:13;12.43;;;9.83;;
3066;SDS011;1544;48.834;9.194;2023-04-08T01:13:48;11.37;;;9.47;;
3066;SDS011;1544;48.834;9.194;2023-04-08T01:16:28;10.93;;;9.47;;
3066;SDS011;1544;48.834;9.194;2023-04-08T01:19:04;10.80;;;9.60;;
3066;SDS011;1544;48.834;9.194;2023-04-08T01:21:41;11.90;;;10.03;;
3066;SDS011;1544;48.834;9.194;2023-04-08T01:24:27;10.97;;;9.50;;
3066;SDS011;1544;48.834;9.194;2023-04-08T01:27:07;13.50;;;10.20;;
3066;SDS011;1544;48.834;9.194;2023-04-08T01:29:44;10.33;;;9.27;;
3066;SDS011;1544;48.834;9.194;2023-04-08T01:32:21;12.20;;;10.73;;
3066;SDS011;1544;48.834;9.194;2023-04-08T01:34:57;12.40;;;10.83;;
3066;SDS011;1544;48.834;9.194;2023-04-08T01:37:35;10.83;;;9.30;;
3066;SDS011;1544;48.834;9.194;2023-04-08T01:40:11;13.50;;;11.40;;
3066;SDS011;1544;48.834;9.194;2023-04-08T01:42:47;12.67;;;10.87;;
3066;SDS011;1544;48.834;9.194;2023-04-08T01:45:24;11.90;;;10.30;;
3066;SDS011;1544;48.834;9.194;2023-04-08T01:47:59;14.40;;;11.23;;
3066;SDS011;1544;48.834;9.194;2023-04-08T01:50:36;12.17;;;10.13;;
3066;SDS011;1544;48.834;9.194;2023-04-08T01:53:11;13.90;;;11.33;;
3066;SDS011;1544;48.834;9.194;2023-04-08T01:55:48;12.67;;;10.43;;
3066;SDS011;1544;48.834;9.194;2023-04-08T01:58:30;16.60;;;12.00;;
3066;SDS011;1544;48.834;9.194;2023-04-08T02:01:12;13.40;;;12.00;;
3066;SDS011;1544;48.834;9.194;2023-04-08T02:03:51;16.13;;;12.53;;
3066;SDS011;1544;48.834;9.194;2023-04-08T02:06:30;12.87;;;11.57;;
3066;SDS011;1544;48.834;9.194;2023-04-08T02:09:06;13.37;;;11.10;;
3066;SDS011;1544;48.834;9.194;2023-04-08T02:11:43;13.20;;;11.27;;
3066;SDS011;1544;48.834;9.194;2023-04-08T02:14:19;13.80;;;10.83;;
3066;SDS011;1544;48.834;9.194;2023-04-08T02:17:08;14.30;;;12.10;;
3066;SDS011;1544;48.834;9.194;2023-04-08T02:25:37;13.33;;;10.90;;
3066;SDS011;1544;48.834;9.194;2023-04-08T02:28:16;13.67;;;11.40;;
3066;SDS011;1544;48.834;9.194;2023-04-08T02:30:52;13.13;;;10.93;;
3066;SDS011;1544;48.834;9.194;2023-04-08T02:33:28;13.00;;;10.93;;
3066;SDS011;1544;48.834;9.194;2023-04-08T02:36:04;13.83;;;11.67;;
3066;SDS011;1544;48.834;9.194;2023-04-08T02:38:40;14.03;;;10.70;;
3066;SDS011;1544;48.834;9.194;2023-04-08T02:41:15;18.60;;;12.30;;
3066;SDS011;1544;48.834;9.194;2023-04-08T02:43:50;13.93;;;11.37;;
3066;SDS011;1544;48.834;9.194;2023-04-08T02:46:28;13.97;;;10.77;;
3066;SDS011;1544;48.834;9.194;2023-04-08T02:49:03;15.13;;;12.33;;
3066;SDS011;1544;48.834;9.194;2023-04-08T02:51:38;15.70;;;11.73;;
3066;SDS011;1544;48.834;9.194;2023-04-08T02:54:13;16.70;;;12.03;;
3066;SDS011;1544;48.834;9.194;2023-04-08T02:56:48;16.70;;;12.03;;
3066;SDS011;1544;48.834;9.194;2023-04-08T02:59:23;17.10;;;12.47;;
3066;SDS011;1544;48.834;9.194;2023-04-08T03:01:58;18.30;;;12.10;;
3066;SDS011;1544;48.834;9.194;2023-04-08T03:04:33;16.70;;;11.90;;
3066;SDS011;1544;48.834;9.194;2023-04-08T03:07:08;19.07;;;13.10;;
3066;SDS011;1544;48.834;9.194;2023-04-08T03:09:43;16.13;;;12.10;;
3066;SDS011;1544;48.834;9.194;2023-04-08T03:12:18;16.70;;;11.50;;
3066;SDS011;1544;48.834;9.194;2023-04-08T03:14:53;15.53;;;11.93;;
3066;SDS011;1544;48.834;9.194;2023-04-08T03:17:28;20.10;;;13.53;;
3066;SDS011;1544;48.834;9.194;2023-04-08T03:20:06;21.73;;;13.90;;
3066;SDS011;1544;48.834;9.194;2023-04-08T03:22:43;18.57;;;13.10;;
3066;SDS011;1544;48.834;9.194;2023-04-08T03:25:17;19.57;;;12.63;;
3066;SDS011;1544;48.834;9.194;2023-04-08T03:27:52;22.00;;;12.93;;
3066;SDS011;1544;48.834;9.194;2023-04-08T03:30:28;19.00;;;12.80;;
3066;SDS011;1544;48.834;9.194;2023-04-08T03:33:03;26.00;;;14.50;;
3066;SDS011;1544;48.834;9.194;2023-04-08T03:35:41;18.60;;;12.20;;
3066;SDS011;1544;48.834;9.194;2023-04-08T03:38:16;20.77;;;12.90;;
3066;SDS011;1544;48.834;9.194;2023-04-08T03:40:51;21.17;;;13.60;;
3066;SDS011;1544;48.834;9.194;2023-04-08T03:43:25;25.30;;;14.00;;
3066;SDS011;1544;48.834;9.194;2023-04-08T03:46:00;22.80;;;13.77;;
3066;SDS011;1544;48.834;9.194;2023-04-08T03:48:35;21.80;;;13.10;;
3066;SDS011;1544;48.834;9.194;2023-04-08T03:51:10;20.27;;;12.97;;
3066;SDS011;1544;48.834;9.194;2023-04-08T03:53:45;20.23;;;12.87;;
3066;SDS011;1544;48.834;9.194;2023-04-08T03:56:21;21.73;;;14.03;;
3066;SDS011;1544;48.834;9.194;2023-04-08T03:58:56;21.60;;;13.43;;
3066;SDS011;1544;48.834;9.194;2023-04-08T04:01:31;20.47;;;13.53;;
3066;SDS011;1544;48.834;9.194;2023-04-08T04:04:06;19.70;;;12.77;;
3066;SDS011;1544;48.834;9.194;2023-04-08T04:06:41;20.77;;;13.40;;
3066;SDS011;1544;48.834;9.194;2023-04-08T04:09:16;20.53;;;13.20;;
3066;SDS011;1544;48.834;9.194;2023-04-08T04:11:51;23.60;;;14.37;;
3066;SDS011;1544;48.834;9.194;2023-04-08T04:14:26;20.77;;;14.83;;
3066;SDS011;1544;48.834;9.194;2023-04-08T04:17:00;22.43;;;14.30;;
3066;SDS011;1544;48.834;9.194;2023-04-08T04:19:35;21.37;;;14.40;;
3066;SDS011;1544;48.834;9.194;2023-04-08T04:22:10;26.63;;;15.30;;
3066;SDS011;1544;48.834;9.194;2023-04-08T04:24:46;21.57;;;14.23;;
3066;SDS011;1544;48.834;9.194;2023-04-08T04:27:24;23.40;;;14.53;;
3066;SDS011;1544;48.834;9.194;2023-04-08T04:29:59;20.93;;;14.57;;
3066;SDS011;1544;48.834;9.194;2023-04-08T04:32:34;18.80;;;13.37;;
3066;SDS011;1544;48.834;9.194;2023-04-08T04:35:09;25.03;;;14.77;;
3066;SDS011;1544;48.834;9.194;2023-04-08T04:37:45;24.30;;;14.97;;
3066;SDS011;1544;48.834;9.194;2023-04-08T04:40:20;21.87;;;14.70;;
3066;SDS011;1544;48.834;9.194;2023-04-08T04:42:55;20.97;;;13.57;;
3066;SDS011;1544;48.834;9.194;2023-04-08T04:45:30;27.33;;;15.90;;
3066;SDS011;1544;48.834;9.194;2023-04-08T04:48:05;26.37;;;15.90;;
3066;SDS011;1544;48.834;9.194;2023-04-08T04:50:40;22.10;;;13.40;;
3066;SDS011;1544;48.834;9.194;2023-04-08T04:53:15;23.23;;;14.70;;
3066;SDS011;1544;48.834;9.194;2023-04-08T04:55:50;26.70;;;15.03;;
3066;SDS011;1544;48.834;9.194;2023-04-08T04:58:25;23.67;;;14.23;;
3066;SDS011;1544;48.834;9.194;2023-04-08T05:00:59;23.80;;;16.20;;
3066;SDS011;1544;48.834;9.194;2023-04-08T05:03:34;26.40;;;16.47;;
3066;SDS011;1544;48.834;9.194;2023-04-08T05:06:09;27.23;;;15.70;;
3066;SDS011;1544;48.834;9.194;2023-04-08T05:08:44;22.63;;;14.80;;
3066;SDS011;1544;48.834;9.194;2023-04-08T05:11:19;24.87;;;15.63;;
3066;SDS011;1544;48.834;9.194;2023-04-08T05:13:57;23.67;;;15.90;;
3066;SDS011;1544;48.834;9.194;2023-04-08T05:16:32;26.90;;;17.00;;
3066;SDS011;1544;48.834;9.194;2023-04-08T05:19:08;25.83;;;15.97;;
3066;SDS011;1544;48.834;9.194;2023-04-08T05:21:43;27.87;;;16.60;;
3066;SDS011;1544;48.834;9.194;2023-04-08T05:24:18;25.33;;;16.70;;
3066;SDS011;1544;48.834;9.194;2023-04-08T05:26:53;26.83;;;16.13;;
3066;SDS011;1544;48.834;9.194;2023-04-08T05:29:28;24.47;;;15.60;;
3066;SDS011;1544;48.834;9.194;2023-04-08T05:32:03;25.77;;;16.63;;
3066;SDS011;1544;48.834;9.194;2023-04-08T05:34:38;24.17;;;14.97;;
3066;SDS011;1544;48.834;9.194;2023-04-08T05:37:13;25.10;;;16.70;;
3066;SDS011;1544;48.834;9.194;2023-04-08T05:39:48;23.77;;;15.60;;
3066;SDS011;1544;48.834;9.194;2023-04-08T05:42:23;27.87;;;15.90;;
3066;SDS011;1544;48.834;9.194;2023-04-08T05:44:58;26.43;;;15.37;;
3066;SDS011;1544;48.834;9.194;2023-04-08T05:47:33;25.80;;;15.43;;
3066;SDS011;1544;48.834;9.194;2023-04-08T05:50:08;26.50;;;14.07;;
3066;SDS011;1544;48.834;9.194;2023-04-08T05:52:44;23.67;;;15.50;;
3066;SDS011;1544;48.834;9.194;2023-04-08T05:55:19;20.47;;;14.47;;
3066;SDS011;1544;48.834;9.194;2023-04-08T05:57:54;22.20;;;15.00;;
3066;SDS011;1544;48.834;9.194;2023-04-08T06:00:29;23.30;;;15.50;;
3066;SDS011;1544;48.834;9.194;2023-04-08T06:03:04;21.37;;;15.70;;
3066;SDS011;1544;48.834;9.194;2023-04-08T06:05:40;23.37;;;15.30;;
3066;SDS011;1544;48.834;9.194;2023-04-08T06:08:16;20.30;;;15.57;;
3066;SDS011;1544;48.834;9.194;2023-04-08T06:10:51;22.60;;;15.80;;
3066;SDS011;1544;48.834;9.194;2023-04-08T06:13:26;20.87;;;14.47;;
3066;SDS011;1544;48.834;9.194;2023-04-08T06:16:10;24.73;;;16.40;;
3066;SDS011;1544;48.834;9.194;2023-04-08T06:18:55;22.37;;;15.77;;
3066;SDS011;1544;48.834;9.194;2023-04-08T06:21:31;21.67;;;15.10;;
3066;SDS011;1544;48.834;9.194;2023-04-08T06:24:06;22.80;;;14.63;;
3066;SDS011;1544;48.834;9.194;2023-04-08T06:26:41;21.43;;;15.57;;
3066;SDS011;1544;48.834;9.194;2023-04-08T06:29:16;18.57;;;13.40;;
3066;SDS011;1544;48.834;9.194;2023-04-08T06:31:51;21.67;;;15.80;;
3066;SDS011;1544;48.834;9.194;2023-04-08T06:34:26;17.50;;;13.57;;
3066;SDS011;1544;48.834;9.194;2023-04-08T06:37:00;21.23;;;14.90;;
3066;SDS011;1544;48.834;9.194;2023-04-08T06:39:36;16.23;;;13.80;;
3066;SDS011;1544;48.834;9.194;2023-04-08T06:42:10;22.77;;;15.50;;
3066;SDS011;1544;48.834;9.194;2023-04-08T06:45:00;20.70;;;15.70;;
3066;SDS011;1544;48.834;9.194;2023-04-08T06:47:34;20.33;;;14.53;;
3066;SDS011;1544;48.834;9.194;2023-04-08T06:50:09;20.13;;;13.30;;
3066;SDS011;1544;48.834;9.194;2023-04-08T06:52:44;17.17;;;13.50;;
3066;SDS011;1544;48.834;9.194;2023-04-08T06:55:19;18.87;;;14.23;;
3066;SDS011;1544;48.834;9.194;2023-04-08T06:57:54;19.03;;;13.97;;
3066;SDS011;1544;48.834;9.194;2023-04-08T07:00:29;19.87;;;13.53;;
3066;SDS011;1544;48.834;9.194;2023-04-08T07:03:04;19.43;;;14.17;;
3066;SDS011;1544;48.834;9.194;2023-04-08T07:05:39;23.60;;;15.47;;
3066;SDS011;1544;48.834;9.194;2023-04-08T07:08:15;18.73;;;13.23;;
3066;SDS011;1544;48.834;9.194;2023-04-08T07:10:51;19.90;;;13.87;;
3066;SDS011;1544;48.834;9.194;2023-04-08T07:13:27;15.20;;;11.77;;
3066;SDS011;1544;48.834;9.194;2023-04-08T07:16:02;13.87;;;11.50;;
3066;SDS011;1544;48.834;9.194;2023-04-08T07:18:37;19.20;;;13.00;;
3066;SDS011;1544;48.834;9.194;2023-04-08T07:21:14;14.63;;;11.20;;
3066;SDS011;1544;48.834;9.194;2023-04-08T07:23:50;13.57;;;11.07;;
3066;SDS011;1544;48.834;9.194;2023-04-08T07:26:24;15.20;;;12.17;;
3066;SDS011;1544;48.834;9.194;2023-04-08T07:29:01;12.13;;;10.73;;
3066;SDS011;1544;48.834;9.194;2023-04-08T07:31:36;14.30;;;11.93;;
3066;SDS011;1544;48.834;9.194;2023-04-08T07:34:11;12.53;;;10.27;;
3066;SDS011;1544;48.834;9.194;2023-04-08T07:36:46;14.17;;;11.40;;
3066;SDS011;1544;48.834;9.194;2023-04-08T07:39:20;12.80;;;10.57;;
3066;SDS011;1544;48.834;9.194;2023-04-08T07:41:55;14.47;;;10.60;;
3066;SDS011;1544;48.834;9.194;2023-04-08T07:44:30;12.30;;;10.80;;
3066;SDS011;1544;48.834;9.194;2023-04-08T07:47:05;11.77;;;10.57;;
3066;SDS011;1544;48.834;9.194;2023-04-08T07:49:40;11.73;;;10.43;;
3066;SDS011;1544;48.834;9.194;2023-04-08T07:52:15;14.70;;;11.10;;
3066;SDS011;1544;48.834;9.194;2023-04-08T07:54:50;13.10;;;10.80;;
3066;SDS011;1544;48.834;9.194;2023-04-08T07:57:25;13.10;;;11.63;;
3066;SDS011;1544;48.834;9.194;2023-04-08T08:00:00;11.50;;;10.30;;
3066;SDS011;1544;48.834;9.194;2023-04-08T08:02:35;11.27;;;9.77;;
3066;SDS011;1544;48.834;9.194;2023-04-08T08:05:10;12.43;;;10.60;;
3066;SDS011;1544;48.834;9.194;2023-04-08T08:07:45;14.03;;;11.70;;
3066;SDS011;1544;48.834;9.194;2023-04-08T08:10:19;13.07;;;10.80;;
3066;SDS011;1544;48.834;9.194;2023-04-08T08:12:54;12.23;;;9.90;;
3066;SDS011;1544;48.834;9.194;2023-04-08T08:15:29;13.10;;;10.80;;
3066;SDS011;1544;48.834;9.194;2023-04-08T08:18:04;12.13;;;10.07;;
3066;SDS011;1544;48.834;9.194;2023-04-08T08:20:39;10.57;;;9.47;;
3066;SDS011;1544;48.834;9.194;2023-04-08T08:23:14;13.73;;;11.10;;
3066;SDS011;1544;48.834;9.194;2023-04-08T08:25:57;11.23;;;10.07;;
3066;SDS011;1544;48.834;9.194;2023-04-08T08:28:38;13.67;;;11.33;;
3066;SDS011;1544;48.834;9.194;2023-04-08T08:31:13;13.43;;;11.23;;
3066;SDS011;1544;48.834;9.194;2023-04-08T08:33:48;12.00;;;10.13;;
3066;SDS011;1544;48.834;9.194;2023-04-08T08:36:23;9.50;;;8.60;;
3066;SDS011;1544;48.834;9.194;2023-04-08T08:38:58;13.47;;;12.03;;
3066;SDS011;1544;48.834;9.194;2023-04-08T08:41:33;11.23;;;10.07;;
3066;SDS011;1544;48.834;9.194;2023-04-08T08:44:09;14.70;;;11.40;;
3066;SDS011;1544;48.834;9.194;2023-04-08T08:46:46;11.23;;;10.17;;
3066;SDS011;1544;48.834;9.194;2023-04-08T08:49:21;14.20;;;11.23;;
3066;SDS011;1544;48.834;9.194;2023-04-08T08:51:57;13.20;;;10.60;;
3066;SDS011;1544;48.834;9.194;2023-04-08T08:54:32;11.50;;;10.30;;
3066;SDS011;1544;48.834;9.194;2023-04-08T08:57:18;12.90;;;11.40;;
3066;SDS011;1544;48.834;9.194;2023-04-08T08:59:53;12.23;;;10.70;;
3066;SDS011;1544;48.834;9.194;2023-04-08T09:02:29;11.87;;;10.80;;
3066;SDS011;1544;48.834;9.194;2023-04-08T09:05:05;11.03;;;9.93;;
3066;SDS011;1544;48.834;9.194;2023-04-08T09:07:41;12.20;;;10.90;;
3066;SDS011;1544;48.834;9.194;2023-04-08T09:10:16;10.73;;;9.60;;
3066;SDS011;1544;48.834;9.194;2023-04-08T09:13:01;12.80;;;11.50;;
3066;SDS011;1544;48.834;9.194;2023-04-08T09:15:40;11.17;;;10.07;;
3066;SDS011;1544;48.834;9.194;2023-04-08T09:18:39;12.30;;;10.83;;
3066;SDS011;1544;48.834;9.194;2023-04-08T09:21:18;12.10;;;10.97;;
3066;SDS011;1544;48.834;9.194;2023-04-08T09:23:58;12.50;;;11.30;;
3066;SDS011;1544;48.834;9.194;2023-04-08T09:26:32;10.93;;;9.93;;
3066;SDS011;1544;48.834;9.194;2023-04-08T09:29:09;11.80;;;10.70;;
3066;SDS011;1544;48.834;9.194;2023-04-08T09:31:59;12.10;;;10.90;;
3066;SDS011;1544;48.834;9.194;2023-04-08T09:34:35;12.03;;;10.83;;
3066;SDS011;1544;48.834;9.194;2023-04-08T09:37:10;11.33;;;10.23;;
3066;SDS011;1544;48.834;9.194;2023-04-08T09:39:45;9.83;;;8.93;;
3066;SDS011;1544;48.834;9.194;2023-04-08T09:42:20;10.77;;;9.77;;
3066;SDS011;1544;48.834;9.194;2023-04-08T09:44:56;12.00;;;10.87;;
3066;SDS011;1544;48.834;9.194;2023-04-08T09:47:33;12.73;;;11.20;;
3066;SDS011;1544;48.834;9.194;2023-04-08T09:50:26;12.77;;;11.57;;
3066;SDS011;1544;48.834;9.194;2023-04-08T09:53:12;11.80;;;10.60;;
3066;SDS011;1544;48.834;9.194;2023-04-08T09:55:55;11.10;;;10.10;;
3066;SDS011;1544;48.834;9.194;2023-04-08T09:58:38;12.67;;;11.40;;
3066;SDS011;1544;48.834;9.194;2023-04-08T10:01:40;10.70;;;9.70;;
3066;SDS011;1544;48.834;9.194;2023-04-08T10:04:26;10.67;;;9.57;;
3066;SDS011;1544;48.834;9.194;2023-04-08T10:07:03;12.57;;;11.27;;
3066;SDS011;1544;48.834;9.194;2023-04-08T10:09:40;12.23;;;11.13;;
3066;SDS011;1544;48.834;9.194;2023-04-08T10:12:16;12.27;;;10.87;;
3066;SDS011;1544;48.834;9.194;2023-04-08T10:18:52;9.47;;;8.63;;
3066;SDS011;1544;48.834;9.194;2023-04-08T10:21:06;11.37;;;10.40;;
3066;SDS011;1544;48.834;9.194;2023-04-08T10:24:10;12.53;;;11.33;;
3066;SDS011;1544;48.834;9.194;2023-04-08T10:26:45;10.33;;;9.40;;
3066;SDS011;1544;48.834;9.194;2023-04-08T10:32:02;13.30;;;10.83;;
3066;SDS011;1544;48.834;9.194;2023-04-08T10:34:37;11.00;;;10.10;;
3066;SDS011;1544;48.834;9.194;2023-04-08T10:37:27;10.30;;;9.43;;
3066;SDS011;1544;48.834;9.194;2023-04-08T10:40:03;10.70;;;9.60;;
3066;SDS011;1544;48.834;9.194;2023-04-08T10:42:39;9.37;;;8.50;;
3066;SDS011;1544;48.834;9.194;2023-04-08T10:45:16;10.70;;;9.80;;
3066;SDS011;1544;48.834;9.194;2023-04-08T10:47:51;11.87;;;10.73;;
3066;SDS011;1544;48.834;9.194;2023-04-08T10:50:26;8.40;;;7.63;;
3066;SDS011;1544;48.834;9.194;2023-04-08T10:53:01;11.17;;;10.17;;
3066;SDS011;1544;48.834;9.194;2023-04-08T10:55:36;11.00;;;10.00;;
3066;SDS011;1544;48.834;9.194;2023-04-08T10:58:11;10.10;;;9.10;;
3066;SDS011;1544;48.834;9.194;2023-04-08T11:00:46;10.80;;;9.73;;
3066;SDS011;1544;48.834;9.194;2023-04-08T11:03:21;8.63;;;7.83;;
3066;SDS011;1544;48.834;9.194;2023-04-08T11:05:56;9.97;;;8.90;;
3066;SDS011;1544;48.834;9.194;2023-04-08T11:08:32;10.60;;;9.60;;
3066;SDS011;1544;48.834;9.194;2023-04-08T11:11:08;10.17;;;9.20;;
3066;SDS011;1544;48.834;9.194;2023-04-08T11:13:44;10.90;;;9.90;;
3066;SDS011;1544;48.834;9.194;2023-04-08T11:16:27;10.83;;;9.70;;
3066;SDS011;1544;48.834;9.194;2023-04-08T11:19:02;10.03;;;9.13;;
3066;SDS011;1544;48.834;9.194;2023-04-08T11:21:38;10.13;;;9.07;;
3066;SDS011;1544;48.834;9.194;2023-04-08T11:24:13;10.90;;;9.80;;
3066;SDS011;1544;48.834;9.194;2023-04-08T11:26:49;9.83;;;8.93;;
3066;SDS011;1544;48.834;9.194;2023-04-08T11:29:24;11.00;;;9.63;;
3066;SDS011;1544;48.834;9.194;2023-04-08T11:31:59;8.57;;;7.77;;
3066;SDS011;1544;48.834;9.194;2023-04-08T11:34:37;8.43;;;7.70;;
3066;SDS011;1544;48.834;9.194;2023-04-08T11:37:12;10.13;;;8.20;;
3066;SDS011;1544;48.834;9.194;2023-04-08T11:39:47;9.67;;;8.10;;
3066;SDS011;1544;48.834;9.194;2023-04-08T11:42:29;8.90;;;8.10;;
3066;SDS011;1544;48.834;9.194;2023-04-08T11:45:09;9.97;;;8.97;;
3066;SDS011;1544;48.834;9.194;2023-04-08T11:47:45;11.70;;;10.60;;
3066;SDS011;1544;48.834;9.194;2023-04-08T11:50:22;10.03;;;8.93;;
3066;SDS011;1544;48.834;9.194;2023-04-08T11:53:03;7.90;;;7.20;;
3066;SDS011;1544;48.834;9.194;2023-04-08T11:55:37;10.30;;;9.40;;
3066;SDS011;1544;48.834;9.194;2023-04-08T11:58:12;13.50;;;9.40;;
3066;SDS011;1544;48.834;9.194;2023-04-08T12:00:49;8.60;;;7.53;;
3066;SDS011;1544;48.834;9.194;2023-04-08T12:03:23;11.10;;;10.00;;
3066;SDS011;1544;48.834;9.194;2023-04-08T12:05:59;9.67;;;8.77;;
3066;SDS011;1544;48.834;9.194;2023-04-08T12:08:34;8.53;;;7.77;;
3066;SDS011;1544;48.834;9.194;2023-04-08T12:11:09;11.00;;;10.00;;
3066;SDS011;1544;48.834;9.194;2023-04-08T12:13:53;11.17;;;10.00;;
3066;SDS011;1544;48.834;9.194;2023-04-08T12:16:28;8.50;;;7.80;;
3066;SDS011;1544;48.834;9.194;2023-04-08T12:19:03;8.63;;;7.83;;
3066;SDS011;1544;48.834;9.194;2023-04-08T12:21:38;10.37;;;9.07;;
3066;SDS011;1544;48.834;9.194;2023-04-08T12:24:13;7.70;;;7.10;;
3066;SDS011;1544;48.834;9.194;2023-04-08T12:26:48;8.13;;;7.43;;
3066;SDS011;1544;48.834;9.194;2023-04-08T12:29:22;8.93;;;8.03;;
3066;SDS011;1544;48.834;9.194;2023-04-08T12:31:58;9.30;;;8.37;;
3066;SDS011;1544;48.834;9.194;2023-04-08T12:34:33;7.80;;;7.20;;
3066;SDS011;1544;48.834;9.194;2023-04-08T12:37:07;9.20;;;8.50;;
3066;SDS011;1544;48.834;9.194;2023-04-08T12:39:43;8.27;;;7.57;;
3066;SDS011;1544;48.834;9.194;2023-04-08T12:42:17;9.30;;;8.50;;
3066;SDS011;1544;48.834;9.194;2023-04-08T12:44:52;8.73;;;8.13;;
3066;SDS011;1544;48.834;9.194;2023-04-08T12:47:27;9.00;;;8.30;;
3066;SDS011;1544;48.834;9.194;2023-04-08T12:50:02;9.70;;;8.80;;
3066;SDS011;1544;48.834;9.194;2023-04-08T12:52:38;8.57;;;7.83;;
3066;SDS011;1544;48.834;9.194;2023-04-08T12:55:13;9.60;;;8.63;;
3066;SDS011;1544;48.834;9.194;2023-04-08T12:57:50;8.67;;;7.87;;
3066;SDS011;1544;48.834;9.194;2023-04-08T13:00:25;8.80;;;8.00;;
3066;SDS011;1544;48.834;9.194;2023-04-08T13:03:00;9.40;;;8.60;;
3066;SDS011;1544;48.834;9.194;2023-04-08T13:05:35;9.63;;;8.73;;
3066;SDS011;1544;48.834;9.194;2023-04-08T13:08:17;8.47;;;7.77;;
3066;SDS011;1544;48.834;9.194;2023-04-08T13:10:52;7.80;;;7.03;;
3066;SDS011;1544;48.834;9.194;2023-04-08T13:13:29;9.60;;;8.73;;
3066;SDS011;1544;48.834;9.194;2023-04-08T13:16:04;8.53;;;7.80;;
3066;SDS011;1544;48.834;9.194;2023-04-08T13:18:39;8.60;;;8.00;;
3066;SDS011;1544;48.834;9.194;2023-04-08T13:21:14;7.90;;;7.30;;
3066;SDS011;1544;48.834;9.194;2023-04-08T13:23:49;8.90;;;8.10;;
3066;SDS011;1544;48.834;9.194;2023-04-08T13:26:24;10.10;;;9.10;;
3066;SDS011;1544;48.834;9.194;2023-04-08T13:28:59;9.10;;;8.40;;
3066;SDS011;1544;48.834;9.194;2023-04-08T13:31:35;8.57;;;7.57;;
3066;SDS011;1544;48.834;9.194;2023-04-08T13:34:10;10.00;;;9.10;;
3066;SDS011;1544;48.834;9.194;2023-04-08T13:36:45;9.23;;;8.43;;
3066;SDS011;1544;48.834;9.194;2023-04-08T13:39:20;9.70;;;8.80;;
3066;SDS011;1544;48.834;9.194;2023-04-08T13:41:55;8.80;;;8.07;;
3066;SDS011;1544;48.834;9.194;2023-04-08T13:44:30;8.90;;;8.10;;
3066;SDS011;1544;48.834;9.194;2023-04-08T13:47:06;10.33;;;9.43;;
3066;SDS011;1544;48.834;9.194;2023-04-08T13:49:41;15.27;;;13.83;;
3066;SDS011;1544;48.834;9.194;2023-04-08T13:52:16;11.13;;;9.53;;
3066;SDS011;1544;48.834;9.194;2023-04-08T13:54:51;9.37;;;8.57;;
3066;SDS011;1544;48.834;9.194;2023-04-08T13:57:26;9.10;;;8.30;;
3066;SDS011;1544;48.834;9.194;2023-04-08T14:00:01;8.87;;;8.13;;
3066;SDS011;1544;48.834;9.194;2023-04-08T14:02:43;10.00;;;9.00;;
3066;SDS011;1544;48.834;9.194;2023-04-08T14:05:18;11.50;;;10.50;;
3066;SDS011;1544;48.834;9.194;2023-04-08T14:07:53;8.43;;;7.73;;
3066;SDS011;1544;48.834;9.194;2023-04-08T14:10:28;11.60;;;10.47;;
3066;SDS011;1544;48.834;9.194;2023-04-08T14:13:03;9.80;;;8.80;;
3066;SDS011;1544;48.834;9.194;2023-04-08T14:15:38;9.20;;;8.40;;
3066;SDS011;1544;48.834;9.194;2023-04-08T14:18:13;9.63;;;8.83;;
3066;SDS011;1544;48.834;9.194;2023-04-08T14:20:50;8.73;;;8.00;;
3066;SDS011;1544;48.834;9.194;2023-04-08T14:23:25;8.57;;;7.80;;
3066;SDS011;1544;48.834;9.194;2023-04-08T14:26:00;9.23;;;8.47;;
3066;SDS011;1544;48.834;9.194;2023-04-08T14:28:35;9.47;;;8.77;;
3066;SDS011;1544;48.834;9.194;2023-04-08T14:31:11;9.37;;;8.67;;
3066;SDS011;1544;48.834;9.194;2023-04-08T14:33:46;8.33;;;7.70;;
3066;SDS011;1544;48.834;9.194;2023-04-08T14:36:21;8.23;;;7.53;;
3066;SDS011;1544;48.834;9.194;2023-04-08T14:38:57;9.00;;;8.17;;
3066;SDS011;1544;48.834;9.194;2023-04-08T14:41:32;6.80;;;6.37;;
3066;SDS011;1544;48.834;9.194;2023-04-08T14:44:07;7.40;;;6.90;;
3066;SDS011;1544;48.834;9.194;2023-04-08T14:46:42;7.23;;;6.73;;
3066;SDS011;1544;48.834;9.194;2023-04-08T14:49:17;6.70;;;6.20;;
3066;SDS011;1544;48.834;9.194;2023-04-08T14:51:52;7.37;;;6.60;;
3066;SDS011;1544;48.834;9.194;2023-04-08T14:54:27;7.03;;;6.43;;
3066;SDS011;1544;48.834;9.194;2023-04-08T14:57:02;6.50;;;5.90;;
3066;SDS011;1544;48.834;9.194;2023-04-08T14:59:37;7.00;;;6.47;;
3066;SDS011;1544;48.834;9.194;2023-04-08T15:02:12;6.03;;;5.53;;
3066;SDS011;1544;48.834;9.194;2023-04-08T15:04:47;8.30;;;6.20;;
3066;SDS011;1544;48.834;9.194;2023-04-08T15:07:22;6.83;;;5.70;;
3066;SDS011;1544;48.834;9.194;2023-04-08T15:09:57;5.50;;;5.00;;
3066;SDS011;1544;48.834;9.194;2023-04-08T15:12:32;5.30;;;4.90;;
3066;SDS011;1544;48.834;9.194;2023-04-08T15:15:08;6.47;;;5.97;;
3066;SDS011;1544;48.834;9.194;2023-04-08T15:17:43;5.37;;;4.97;;
3066;SDS011;1544;48.834;9.194;2023-04-08T15:20:18;4.83;;;4.43;;
3066;SDS011;1544;48.834;9.194;2023-04-08T15:22:53;5.70;;;5.10;;
3066;SDS011;1544;48.834;9.194;2023-04-08T15:25:29;3.90;;;3.60;;
3066;SDS011;1544;48.834;9.194;2023-04-08T15:28:03;4.57;;;4.27;;
3066;SDS011;1544;48.834;9.194;2023-04-08T15:30:39;4.10;;;3.90;;
3066;SDS011;1544;48.834;9.194;2023-04-08T15:33:14;4.53;;;4.23;;
3066;SDS011;1544;48.834;9.194;2023-04-08T15:35:49;3.50;;;3.30;;
3066;SDS011;1544;48.834;9.194;2023-04-08T15:38:24;5.07;;;4.77;;
3066;SDS011;1544;48.834;9.194;2023-04-08T15:41:00;4.67;;;4.37;;
3066;SDS011;1544;48.834;9.194;2023-04-08T15:43:36;4.13;;;3.83;;
3066;SDS011;1544;48.834;9.194;2023-04-08T15:46:21;5.30;;;5.00;;
3066;SDS011;1544;48.834;9.194;2023-04-08T15:48:56;4.97;;;4.53;;
3066;SDS011;1544;48.834;9.194;2023-04-08T15:51:33;5.37;;;4.97;;
3066;SDS011;1544;48.834;9.194;2023-04-08T15:54:08;4.63;;;4.23;;
3066;SDS011;1544;48.834;9.194;2023-04-08T15:56:44;4.33;;;4.03;;
3066;SDS011;1544;48.834;9.194;2023-04-08T15:59:20;5.10;;;4.70;;
3066;SDS011;1544;48.834;9.194;2023-04-08T16:01:54;4.20;;;3.90;;
3066;SDS011;1544;48.834;9.194;2023-04-08T16:04:30;3.90;;;3.70;;